Djibril Okafor

Olheiro - Grasshopper
6 Jan 2028
Quinta-feira
Processo

Personalidade

Adaptabilidade (18) Ambição (13) Controvérsia (14) Lealdade (18) Pressão (15) Profissionalismo (5) Espírito Esportivo (10) Temperamento (15)

Perfil

Estilo de Treinamento Democrático
Licença Continental Pro
Determinação 12
Gestão de Pessoas 5
Motivação 4
Disciplina 9
Satisfação no Trabalho
30%
Fadiga
0%
Função Olheiro
Salário 12.9K p/s
Contrato 14.03.2030

Desempenho

Comportamento Bom
Eficácia do Treinamento
12%
Desenvolvimento do Jogador
40%
Prevenção de Lesões
30%
Implementação Tática
30%

Eventos Recentes

Participou de uma reunião de recrutamento agora
Participou de uma reunião de recrutamento 7d atrás
Recomendou um alvo de transferência 7d atrás
Apresentou um dossiê à direção 7d atrás
Participou de uma reunião de recrutamento 14d atrás
Recomendou um alvo de transferência 14d atrás
Participou de uma reunião de recrutamento 21d atrás
Recomendou um alvo de transferência 21d atrás

Monitorando agora

72
Jogador Clube Status Habilidade Confiança Observado Última observação Último voto
Mischa Eberhard Vaduz Perdido 102 / 109 76% 1 01.01.2028 -
Ilyas Ansah Hull City Ativo 131 / 138 40% 3 29.05.2027 -
Tom Fellows Southampton Ativo 129 / 130 40% 4 28.05.2027 -
Jack Rudoni Coventry City Ativo 134 / 128 40% 2 28.05.2027 -
Harry Clarke Preston Ativo 123 / 134 40% 1 28.05.2027 -
Alex Robertson Cardiff City Ativo 124 / 123 40% 1 27.05.2027 -
Tyler Goodrham Oxford United Ativo 118 / 126 40% 1 27.05.2027 -
Christ Inao Oulaï Fiorentina Ativo 130 / 147 40% 2 26.05.2027 -
Davide Bartesaghi AC Milan Ativo 129 / 130 40% 1 26.05.2027 -
Giorgi Chakvetadze Watford Ativo 127 / 130 40% 2 24.05.2027 -
Finn Azaz Southampton Ativo 130 / 126 40% 5 23.05.2027 -
Derensili Sanches Fernandes Huddersfield Town Ativo 124 / 121 40% 1 23.05.2027 -
Scott Twine Bristol City Ativo 122 / 116 40% 1 22.05.2027 -
Jason Knight Bristol City Ativo 135 / 125 40% 1 22.05.2027 -
Othmane Maamma Watford Ativo 123 / 127 40% 6 21.05.2027 -
Rayan Bournemouth Ativo 140 / 140 40% 1 21.05.2027 -
Joel McGregor Swindon Town Ativo 88 / 96 40% 1 20.05.2027 -
Rodrigo Mora AS Roma Ativo 131 / 144 40% 1 20.05.2027 -
Lander Astiazarán Real Sociedad Ativo 104 / 108 40% 3 19.05.2027 -
Shea Lacey Wolverhampton Ativo 120 / 132 40% 1 19.05.2027 -
Paddy Lane Reading Ativo 111 / 116 40% 1 18.05.2027 -
Florentino Luís Ipswich Town Ativo 136 / 138 40% 1 18.05.2027 -
Jofre Torrents Ajax Ativo 129 / 121 40% 2 17.05.2027 -
Leo Castledine Middlesbrough Ativo 131 / 129 40% 1 17.05.2027 -
Adam Bakoune Ospitaletto Ativo 92 / 107 40% 1 17.05.2027 -
Jan Bürger Gillingham Ativo 113 / 113 40% 1 17.05.2027 -
Ethan Williams Peterborough United Ativo 119 / 111 40% 2 15.05.2027 -
Tyrese Campbell Sheffield United Ativo 128 / 127 40% 1 15.05.2027 -
Daniel Kyerewaa Reading Ativo 119 / 106 40% 3 14.05.2027 -
Isaac Price West Bromwich Albion Ativo 125 / 124 40% 2 14.05.2027 -
Kasey McAteer Ipswich Town Ativo 133 / 127 40% 1 14.05.2027 -
Joseph Hungbo Wigan Athletic Ativo 107 / 106 40% 1 13.05.2027 -
Mohamed Belloumi Hull City Ativo 132 / 141 40% 1 12.05.2027 -
Ollie Tanner Cardiff City Ativo 114 / 121 40% 3 11.05.2027 -
Hazeem Bakre Crawley Town Ativo 77 / 78 40% 1 09.05.2027 -
Franz-Ethan Meichtry Genoa Ativo 124 / 117 40% 1 09.05.2027 -
Percy Jali Free State Stars Ativo 90 / 86 40% 1 09.05.2027 -
Isaiah Jones Luton Town Ativo 126 / 117 40% 4 08.05.2027 -
Younes Ebnoutalib Eintracht Frankfurt Ativo 127 / 130 40% 1 08.05.2027 -
Cian Ashford Cardiff City Ativo 123 / 125 40% 2 07.05.2027 -
Dávid Strelec Middlesbrough Ativo 135 / 138 40% 1 03.05.2027 -
Tshepang Moremi Orlando Pirates Ativo 117 / 123 40% 1 03.05.2027 -
Paulo Cardoso Sporting CP Ativo 94 / 101 40% 1 02.05.2027 -
Caleb Yirenkyi Coventry City Ativo 130 / 134 40% 1 02.05.2027 -
Alphadjo Cissé Como Ativo 121 / 137 40% 1 30.04.2027 -
Morgan Whittaker Middlesbrough Ativo 136 / 139 40% 4 29.04.2027 -
Andre Brooks Sheffield United Ativo 125 / 122 40% 1 29.04.2027 -
Samuele di Benedetto Bari Ativo 107 / 109 40% 2 28.04.2027 -
Koki Saito Queens Park Rangers Ativo 121 / 129 40% 1 27.04.2027 -
Ibrahim Maza Bayer Leverkusen Ativo 139 / 149 40% 2 26.04.2027 -
Leon Grgić Sturm Graz Ativo 126 / 122 40% 1 25.04.2027 -
Jayden Addai Como Ativo 135 / 132 40% 1 25.04.2027 -
Tomáš Rigo Stoke City Ativo 128 / 129 40% 1 23.04.2027 -
Romano Schmid Frosinone Ativo 146 / 152 40% 1 21.04.2027 -
Xavier Amaechi Plymouth Argyle Ativo 113 / 108 40% 1 21.04.2027 -
Araphat Mohammed Berekum Chelsea Ativo 112 / 98 40% 1 21.04.2027 -
Mohamed-Ali Cho Hull City Ativo 131 / 136 40% 1 18.04.2027 -
Stanley Mills Oxford United Ativo 117 / 117 40% 1 16.04.2027 -
Mandla Erasmus SuperSport United Ativo 121 / 132 40% 1 16.04.2027 -
Zeki Amdouni Burnley Ativo 130 / 127 40% 1 15.04.2027 -
Max Bird Birmingham Ativo 138 / 131 40% 1 14.04.2027 -
Joe Gelhardt Hull City Ativo 136 / 141 40% 1 12.04.2027 -
Ali Ahmed Norwich City Ativo 121 / 119 40% 1 12.04.2027 -
Williams Wonah AS Korofina Ativo 72 / 84 40% 1 07.04.2027 -
Jack Diamond Stockport County Ativo 120 / 127 40% 2 03.04.2027 -
Mathias Jørgensen Blackburn Rovers Ativo 122 / 123 40% 1 03.04.2027 -
Marcelo Allende Mamelodi Sundowns Ativo 137 / 132 40% 2 30.03.2027 -
Welington Southampton Ativo 132 / 123 40% 1 26.03.2027 -
Nicolò Cambiaghi Bologna Ativo 143 / 145 40% 1 20.03.2027 -
Franck Surdez Sion Ativo 111 / 108 76% 1 18.01.2027 Aprovar
Jacques Ekomié Wrexham Ativo 135 / 140 40% 1 31.12.2026 -
Lautaro Gutiérrez Belgrano Ativo 110 / 94 40% 1 01.08.2026 -